Flight Track Log - Related Links

Times and Time Zones

All times are in EDT time to prevent confusion due to time zone crossing. See the A6-EWE flight status page for this flight to view local times or setup timezone preferences in your user account.

Time Position Orientation Groundspeed Altitude Reporting Facility
EDT Latitude Longitude Course Direction KTS MPH feet Rate Location/Type
Sun 02:47:57 AM 25.2680 55.3460 301° West 173 199 1,400  Level FlightAware ADS-B
Sun 02:48:32 AM 25.2830 55.3190 302° West 195 224 2,200 1,320 Climbing FlightAware ADS-B
Sun 02:48:47 AM 25.2950 55.3070 318° Northwest 228 262 2,500 2,280 Climbing FlightAware ADS-B
Sun 02:49:22 AM 25.3290 55.2790 323° Northwest 255 293 4,100 2,600 Climbing FlightAware ADS-B
Sun 02:49:47 AM 25.3540 55.2590 324° Northwest 262 302 5,100 2,280 Climbing FlightAware ADS-B
Sun 02:50:12 AM 25.3720 55.2410 318° Northwest 266 306 6,000 769 Climbing FlightAware ADS-B
Sun 02:52:00 AM 25.4757 55.0491 301° West  Level Estimated
Sun 02:53:00 AM 25.5333 54.9424 301° West  Level Estimated
Sun 02:54:00 AM 25.5907 54.8356 301° West  Level Estimated
Sun 02:55:00 AM 25.6481 54.7287 301° West  Level Estimated
Sun 02:55:07 AM 25.5150 54.8620 301° West 272 313 9,200  Level FlightAware ADS-B
Sun 02:57:00 AM 25.6195 54.6675 301° West  Level Estimated
Sun 02:58:00 AM 25.6749 54.5641 301° West  Level Estimated
Sun 02:59:00 AM 25.7302 54.4605 301° West  Level Estimated
Sun 03:00:00 AM 25.7855 54.3569 301° West  Level Estimated
Sun 03:00:07 AM 25.5540 54.3570 301° West 380 437 20,200  Level FlightAware ADS-B
Sun 03:02:00 AM 25.6583 54.1623 301° West  Level Estimated
Sun 03:02:15 AM 25.5710 54.1040 301° West 394 453 25,800  Level FlightAware ADS-B
Sun 03:02:55 AM 25.5740 54.0360 273° West 394 453 25,800 2,625 Level FlightAware ADS-B
Sun 03:03:35 AM 25.5910 53.9300 280° West 433 498 29,300 3,671 Climbing FlightAware ADS-B
Sun 03:04:20 AM 25.6130 53.8330 284° West 430 495 31,000 1,906 Climbing FlightAware ADS-B
Sun 03:05:00 AM 25.6340 53.7460 285° West 438 504 32,000 1,425 Climbing FlightAware ADS-B
Sun 03:05:40 AM 25.6550 53.6600 285° West 440 506 32,900 1,200 Climbing FlightAware ADS-B
Sun 03:06:25 AM 25.6780 53.5650 285° West 445 512 33,700 1,333 Climbing FlightAware ADS-B
Sun 03:07:10 AM 25.7020 53.4610 284° West 441 507 34,900 1,482 Climbing FlightAware ADS-B
Sun 03:07:50 AM 25.7220 53.3770 285° West 436 502 35,800 776 Climbing FlightAware ADS-B
Sun 03:08:35 AM 25.7430 53.2800 284° West 431 496 36,000 141 Climbing FlightAware ADS-B
Sun 03:09:15 AM 25.7540 53.1860 277° West 437 503 36,000  Level FlightAware ADS-B
Sun 03:10:00 AM 25.7660 53.0880 278° West 443 510 36,000  Level FlightAware ADS-B
Sun 03:10:40 AM 25.7980 53.0030 293° West 454 522 36,000  Level FlightAware ADS-B
Sun 03:11:20 AM 25.8400 52.9180 299° West 450 518 36,000  Level FlightAware ADS-B
Sun 03:12:05 AM 25.8810 52.8330 298° West 453 521 36,000  Level FlightAware ADS-B
Sun 03:12:45 AM 25.9220 52.7470 298° West 451 519 36,000  Level FlightAware ADS-B
Sun 03:13:25 AM 25.9620 52.6650 298° West 451 519 36,000  Level FlightAware ADS-B
Sun 03:14:10 AM 26.0040 52.5760 298° West 453 521 36,000  Level FlightAware ADS-B
Sun 03:14:45 AM 26.0390 52.5020 298° West 451 519 36,000  Level FlightAware ADS-B
Sun 03:16:00 AM 26.1120 52.3490 298° West 448 516 36,000  Level FlightAware ADS-B
Sun 03:17:25 AM 26.1950 52.1750 298° West 448 516 36,000  Level FlightAware ADS-B
Sun 03:18:20 AM 26.2470 52.0640 298° West 445 512 36,000  Level FlightAware ADS-B
Sun 03:19:30 AM 26.3150 51.9210 298° West 439 505 36,000  Level FlightAware ADS-B
Sun 03:20:55 AM 26.3940 51.7500 297° West 437 503 36,000  Level FlightAware ADS-B
Sun 03:21:35 AM 26.4340 51.6660 298° West 436 502 36,000  Level FlightAware ADS-B
Sun 03:22:20 AM 26.4750 51.5770 297° West 437 503 36,000  Level FlightAware ADS-B
Sun 03:23:00 AM 26.5130 51.4960 298° West 436 502 36,000  Level FlightAware ADS-B
Sun 03:23:40 AM 26.5510 51.4140 297° West 440 506 36,000  Level FlightAware ADS-B
Sun 03:24:25 AM 26.5940 51.3210 297° West 439 505 36,000  Level FlightAware ADS-B
Sun 03:25:05 AM 26.6260 51.2450 295° West 445 512 36,000  Level FlightAware ADS-B
Sun 03:25:50 AM 26.6640 51.1470 293° West 444 511 36,000  Level FlightAware ADS-B
Sun 03:26:25 AM 26.6930 51.0740 294° West 444 511 36,000  Level FlightAware ADS-B
Sun 03:27:10 AM 26.7260 50.9860 293° West 444 511 36,000  Level FlightAware ADS-B
Sun 03:27:50 AM 26.7530 50.9140 293° West 444 511 36,000  Level FlightAware ADS-B
Sun 03:28:30 AM 26.7810 50.8420 294° West 444 511 36,000  Level FlightAware ADS-B
Sun 03:29:20 AM 26.8150 50.7520 293° West 444 511 36,000  Level FlightAware ADS-B
Sun 03:30:00 AM 26.8420 50.6800 293° West 444 511 36,000  Level FlightAware ADS-B
Sun 03:30:40 AM 26.8690 50.6080 293° West 444 511 36,000  Level FlightAware ADS-B
Sun 03:31:20 AM 26.8970 50.5360 294° West 444 511 36,000  Level FlightAware ADS-B
Sun 03:32:05 AM 26.9650 50.3570 293° West 36,000  Level FlightAware ADS-B
Sun 03:33:40 AM 27.0330 50.1600 291° West 36,000  Level FlightAware ADS-B
Sun 03:34:10 AM 27.0660 50.1080 305° West 414 476 36,000  Level FlightAware ADS-B
Sun 03:34:50 AM 27.1290 50.0540 323° Northwest 400 460 36,000  Level FlightAware ADS-B
Sun 03:35:35 AM 27.1960 50.0000 324° Northwest 401 461 36,000  Level FlightAware ADS-B
Sun 03:36:15 AM 27.2540 49.9540 325° Northwest 404 465 36,000  Level FlightAware ADS-B
Sun 03:37:00 AM 27.3230 49.8980 324° Northwest 406 467 36,000  Level FlightAware ADS-B
Sun 03:37:35 AM 27.3720 49.8570 323° Northwest 406 467 36,000  Level FlightAware ADS-B
Sun 03:38:25 AM 27.4530 49.7930 325° Northwest 404 465 36,000  Level FlightAware ADS-B
Sun 03:39:15 AM 27.5310 49.7290 324° Northwest 404 465 36,000  Level FlightAware ADS-B
Sun 03:39:55 AM 27.5940 49.6790 325° Northwest 405 466 36,000  Level FlightAware ADS-B
Sun 03:40:45 AM 27.6700 49.6160 324° Northwest 405 466 36,000  Level FlightAware ADS-B
Sun 03:41:25 AM 27.7200 49.5730 323° Northwest 405 466 36,000  Level FlightAware ADS-B
Sun 03:42:05 AM 27.7710 49.5290 323° Northwest 405 466 36,000  Level FlightAware ADS-B
Sun 03:42:50 AM 27.8490 49.4730 328° Northwest 411 473 36,000  Level FlightAware ADS-B
Sun 03:43:30 AM 27.9080 49.4300 327° Northwest 410 472 36,000  Level FlightAware ADS-B
Sun 03:44:55 AM 28.0540 49.3290 329° Northwest 411 473 36,000  Level FlightAware ADS-B
Sun 03:45:40 AM 28.1220 49.2820 329° Northwest 411 473 36,000  Level FlightAware ADS-B
Sun 03:46:20 AM 28.1920 49.2330 328° Northwest 411 473 36,000  Level FlightAware ADS-B
Sun 03:46:50 AM 28.2420 49.1980 328° Northwest 410 472 36,000  Level FlightAware ADS-B
Sun 03:47:40 AM 28.3170 49.1450 328° Northwest 409 471 36,000  Level FlightAware ADS-B
Sun 03:48:20 AM 28.3870 49.0960 328° Northwest 409 471 36,000  Level FlightAware ADS-B
Sun 03:49:00 AM 28.4520 49.0490 328° Northwest 408 470 36,000  Level FlightAware ADS-B
Sun 03:49:40 AM 28.5140 49.0060 329° Northwest 407 468 36,000  Level FlightAware ADS-B
Sun 03:50:40 AM 28.6140 48.9350 328° Northwest 405 466 36,000  Level FlightAware ADS-B
Sun 03:51:10 AM 28.6570 48.9040 328° Northwest 404 465 36,000  Level FlightAware ADS-B
Sun 03:52:15 AM 28.7600 48.8310 328° Northwest 404 465 36,000  Level FlightAware ADS-B
Sun 03:52:55 AM 28.8220 48.7870 328° Northwest 404 465 36,000  Level FlightAware ADS-B
Sun 03:53:40 AM 28.8940 48.7350 328° Northwest 404 465 36,000  Level FlightAware ADS-B
Sun 03:54:20 AM 28.9550 48.6920 328° Northwest 404 465 36,000  Level FlightAware ADS-B
Sun 03:55:00 AM 29.0210 48.6440 328° Northwest 404 465 36,000  Level FlightAware ADS-B
Sun 03:55:45 AM 29.0900 48.5950 328° Northwest 404 465 36,000  Level FlightAware ADS-B
Sun 03:56:25 AM 29.1570 48.5470 328° Northwest 404 465 36,000  Level FlightAware ADS-B
Sun 03:57:10 AM 29.2260 48.4970 328° Northwest 405 466 36,000  Level FlightAware ADS-B
Sun 03:57:50 AM 29.2880 48.4520 328° Northwest 404 465 36,000  Level FlightAware ADS-B
Sun 03:58:25 AM 29.3450 48.4110 328° Northwest 403 464 36,000  Level FlightAware ADS-B
Sun 03:59:15 AM 29.4230 48.3550 328° Northwest 403 464 36,000  Level FlightAware ADS-B
Sun 04:00:05 AM 29.4970 48.3010 328° Northwest 400 460 36,000  Level FlightAware ADS-B
Sun 04:00:55 AM 29.5790 48.2420 328° Northwest 399 459 36,000  Level FlightAware ADS-B
Sun 04:01:30 AM 29.6360 48.2000 327° Northwest 397 457 36,000  Level FlightAware ADS-B
Sun 04:02:20 AM 29.7050 48.1500 328° Northwest 397 457 36,000  Level FlightAware ADS-B
Sun 04:03:15 AM 29.7940 48.0850 328° Northwest 397 457 36,000  Level FlightAware ADS-B
Sun 04:03:55 AM 29.8580 48.0390 328° Northwest 397 457 36,000  Level FlightAware ADS-B
Sun 04:04:55 AM 29.9410 47.9780 328° Northwest 397 457 36,000  Level FlightAware ADS-B
Sun 04:05:35 AM 30.0100 47.9260 327° Northwest 399 459 36,000  Level FlightAware ADS-B
Sun 04:06:20 AM 30.0750 47.8640 320° Northwest 398 458 36,000  Level FlightAware ADS-B
Sun 04:07:05 AM 30.1370 47.7990 318° Northwest 398 458 36,000  Level FlightAware ADS-B
Sun 04:07:45 AM 30.1880 47.7450 318° Northwest 398 458 36,000  Level FlightAware ADS-B
Sun 04:08:20 AM 30.2410 47.6890 318° Northwest 400 460 36,000  Level FlightAware ADS-B
Sun 04:09:05 AM 30.2930 47.6340 318° Northwest 400 460 36,000  Level FlightAware ADS-B
Sun 04:09:55 AM 30.3570 47.5670 318° Northwest 401 461 36,000  Level FlightAware ADS-B
Sun 04:10:30 AM 30.4160 47.5070 319° Northwest 400 460 36,000  Level FlightAware ADS-B
Sun 04:11:15 AM 30.4690 47.4490 317° Northwest 400 460 36,000  Level FlightAware ADS-B
Sun 04:11:45 AM 30.5030 47.4120 317° Northwest 400 460 36,000  Level FlightAware ADS-B
Sun 04:12:15 AM 30.5380 47.3750 318° Northwest 400 460 36,000  Level FlightAware ADS-B
Sun 04:12:45 AM 30.5720 47.3370 316° Northwest 400 460 36,000  Level FlightAware ADS-B
Sun 04:13:25 AM 30.6180 47.2870 317° Northwest 400 460 36,000  Level FlightAware ADS-B
Sun 04:14:15 AM 30.6760 47.2250 317° Northwest 400 460 36,000  Level FlightAware ADS-B
Sun 04:14:45 AM 30.7100 47.1880 317° Northwest 400 460 36,000  Level FlightAware ADS-B
Sun 04:15:25 AM 30.7560 47.1380 317° Northwest 400 460 36,000  Level FlightAware ADS-B
Sun 04:16:05 AM 30.8020 47.0880 317° Northwest 400 460 36,000  Level FlightAware ADS-B
Sun 04:16:45 AM 30.8480 47.0380 317° Northwest 400 460 36,000  Level FlightAware ADS-B
Sun 04:17:15 AM 30.8830 47.0000 317° Northwest 400 460 36,000  Level FlightAware ADS-B
Sun 04:17:55 AM 30.9290 46.9500 317° Northwest 400 460 36,000  Level FlightAware ADS-B
Sun 04:18:25 AM 30.9630 46.9130 317° Northwest 400 460 36,000  Level FlightAware ADS-B
Sun 04:19:15 AM 31.0210 46.8500 317° Northwest 400 460 36,000  Level FlightAware ADS-B
Sun 04:19:55 AM 31.0670 46.8000 317° Northwest 400 460 36,000  Level FlightAware ADS-B
Sun 04:20:25 AM 31.1010 46.7620 316° Northwest 400 460 36,000  Level FlightAware ADS-B
Sun 04:23:00 AM 31.2221 46.4668 296° West  Level Estimated
Sun 04:24:00 AM 31.2688 46.3523 296° West  Level Estimated
Sun 04:25:00 AM 31.3154 46.2377 295° West  Level Estimated
Sun 04:26:00 AM 31.3619 46.1230 295° West  Level Estimated
Sun 04:27:00 AM 31.4083 46.0082 295° West  Level Estimated
Sun 04:28:00 AM 31.4546 45.8933 295° West  Level Estimated
Sun 04:29:00 AM 31.5008 45.7782 295° West  Level Estimated
Sun 04:30:00 AM 31.5469 45.6631 295° West  Level Estimated
Sun 04:31:00 AM 31.5929 45.5478 295° West  Level Estimated
Sun 04:32:00 AM 31.6388 45.4324 295° West  Level Estimated
Sun 04:33:00 AM 31.6845 45.3169 295° West  Level Estimated
Sun 04:34:00 AM 31.7302 45.2013 295° West  Level Estimated
Sun 04:35:00 AM 31.7758 45.0855 295° West  Level Estimated
Sun 04:36:00 AM 31.8213 44.9697 295° West  Level Estimated
Sun 04:37:00 AM 31.8666 44.8537 295° West  Level Estimated
Sun 04:37:05 AM 32.5860 45.1480 295° West 384 442 36,000  Level FlightAware ADS-B
Sun 04:37:50 AM 32.6360 45.0910 316° Northwest 384 442 36,000  Level FlightAware ADS-B
Sun 04:38:25 AM 32.6960 45.0510 331° Northwest 381 438 36,000  Level FlightAware ADS-B
Sun 04:39:10 AM 32.7680 45.0080 333° Northwest 381 438 36,000  Level FlightAware ADS-B
Sun 04:39:35 AM 32.8040 44.9860 333° Northwest 381 438 36,000  Level FlightAware ADS-B
Sun 04:40:30 AM 32.8940 44.9310 333° Northwest 380 437 36,000  Level FlightAware ADS-B
Sun 04:41:15 AM 32.9630 44.8890 333° Northwest 381 438 36,000  Level FlightAware ADS-B
Sun 04:41:55 AM 33.0260 44.8500 333° Northwest 382 440 36,000  Level FlightAware ADS-B
Sun 04:42:35 AM 33.0890 44.8120 333° Northwest 381 438 36,000  Level FlightAware ADS-B
Sun 04:43:20 AM 33.1620 44.7670 333° Northwest 382 440 36,000  Level FlightAware ADS-B
Sun 04:44:00 AM 33.2270 44.7300 335° Northwest 387 445 36,000  Level FlightAware ADS-B
Sun 04:44:35 AM 33.2870 44.7070 342° North 390 449 36,000  Level FlightAware ADS-B
Sun 04:45:20 AM 33.3640 44.6790 343° North 393 452 36,000  Level FlightAware ADS-B
Sun 04:45:55 AM 33.4240 44.6570 343° North 393 452 36,000  Level FlightAware ADS-B
Sun 04:46:35 AM 33.4960 44.6300 343° North 394 453 36,000  Level FlightAware ADS-B
Sun 04:47:15 AM 33.5620 44.6030 341° North 391 450 36,000  Level FlightAware ADS-B
Sun 04:47:55 AM 33.6290 44.5700 338° Northwest 391 450 36,000  Level FlightAware ADS-B
Sun 04:48:40 AM 33.7060 44.5320 338° Northwest 393 452 36,000  Level FlightAware ADS-B
Sun 04:49:15 AM 33.7660 44.5030 338° Northwest 394 453 36,000  Level FlightAware ADS-B
Sun 04:49:55 AM 33.8330 44.4690 337° Northwest 395 455 36,000  Level FlightAware ADS-B
Sun 04:50:35 AM 33.9000 44.4360 338° Northwest 395 455 36,000  Level FlightAware ADS-B
Sun 04:51:15 AM 33.9640 44.4050 338° Northwest 396 456 36,000  Level FlightAware ADS-B
Sun 04:51:55 AM 34.0330 44.3710 338° Northwest 397 457 36,000  Level FlightAware ADS-B
Sun 04:52:30 AM 34.0950 44.3400 338° Northwest 399 459 36,000  Level FlightAware ADS-B
Sun 04:53:05 AM 34.1510 44.3120 338° Northwest 399 459 36,000  Level FlightAware ADS-B
Sun 04:54:00 AM 34.2520 44.2620 338° Northwest 401 461 36,000  Level FlightAware ADS-B
Sun 04:54:45 AM 34.3280 44.2240 338° Northwest 401 461 36,000  Level FlightAware ADS-B
Sun 04:55:25 AM 34.3960 44.1900 338° Northwest 401 461 36,000  Level FlightAware ADS-B
Sun 04:56:05 AM 34.4650 44.1550 337° Northwest 402 463 36,000  Level FlightAware ADS-B
Sun 04:56:45 AM 34.5350 44.1200 338° Northwest 402 463 36,000  Level FlightAware ADS-B
Sun 04:57:15 AM 34.5860 44.0930 336° Northwest 403 464 36,000  Level FlightAware ADS-B
Sun 04:57:50 AM 34.6460 44.0610 336° Northwest 404 465 36,000  Level FlightAware ADS-B
Sun 04:58:25 AM 34.7050 44.0300 337° Northwest 406 467 36,000  Level FlightAware ADS-B
Sun 04:59:00 AM 34.7640 43.9990 337° Northwest 407 468 36,000  Level FlightAware ADS-B
Sun 05:00:09 AM 34.8850 43.9360 337° Northwest 405 466 36,000  Level FlightAware ADS-B
Sun 05:00:40 AM 34.9390 43.9070 336° Northwest 406 467 36,000  Level FlightAware ADS-B
Sun 05:01:25 AM 35.0150 43.8670 337° Northwest 406 467 36,000  Level FlightAware ADS-B
Sun 05:02:08 AM 35.0890 43.8280 337° Northwest 406 467 36,000  Level FlightAware ADS-B
Sun 05:02:58 AM 35.1760 43.7820 337° Northwest 405 466 36,000  Level FlightAware ADS-B
Sun 05:03:43 AM 35.2540 43.7400 336° Northwest 407 468 36,000  Level FlightAware ADS-B
Sun 05:04:13 AM 35.3050 43.7130 337° Northwest 406 467 36,000  Level FlightAware ADS-B
Sun 05:04:43 AM 35.3570 43.6850 336° Northwest 407 468 36,000  Level FlightAware ADS-B
Sun 05:05:18 AM 35.4190 43.6520 337° Northwest 408 470 36,000  Level FlightAware ADS-B
Sun 05:06:08 AM 35.5030 43.6070 336° Northwest 409 471 36,000  Level FlightAware ADS-B
Sun 05:06:48 AM 35.5760 43.5690 337° Northwest 409 471 36,000  Level FlightAware ADS-B
Sun 05:07:23 AM 35.6350 43.5370 336° Northwest 409 471 36,000  Level FlightAware ADS-B
Sun 05:08:08 AM 35.7110 43.4960 336° Northwest 409 471 36,000  Level FlightAware ADS-B
Sun 05:08:38 AM 35.7660 43.4670 337° Northwest 410 472 36,000  Level FlightAware ADS-B
Sun 05:09:08 AM 35.8190 43.4380 336° Northwest 411 473 36,000  Level FlightAware ADS-B
Sun 05:09:48 AM 35.8890 43.4000 336° Northwest 413 475 36,000  Level FlightAware ADS-B
Sun 05:10:23 AM 35.9480 43.3680 336° Northwest 414 476 36,000  Level FlightAware ADS-B
Sun 05:11:03 AM 36.0190 43.3300 337° Northwest 414 476 36,000  Level FlightAware ADS-B
Sun 05:11:43 AM 36.0890 43.2920 336° Northwest 414 476 36,000  Level FlightAware ADS-B
Sun 05:12:13 AM 36.1410 43.2630 336° Northwest 414 476 36,000  Level FlightAware ADS-B
Sun 05:12:48 AM 36.2020 43.2300 336° Northwest 414 476 36,000  Level FlightAware ADS-B
Sun 05:13:33 AM 36.2810 43.1860 336° Northwest 416 479 36,000  Level FlightAware ADS-B
Sun 05:14:13 AM 36.3520 43.1470 336° Northwest 416 479 36,000  Level FlightAware ADS-B
Sun 05:14:48 AM 36.4120 43.1140 336° Northwest 418 481 36,000  Level FlightAware ADS-B
Sun 05:15:23 AM 36.4770 43.0780 336° Northwest 420 483 36,000  Level FlightAware ADS-B
Sun 05:15:53 AM 36.5310 43.0480 336° Northwest 420 483 36,000  Level FlightAware ADS-B
Sun 05:16:43 AM 36.6170 43.0010 336° Northwest 418 481 36,000  Level FlightAware ADS-B
Sun 05:17:23 AM 36.6890 42.9600 335° Northwest 418 481 36,000  Level FlightAware ADS-B
Sun 05:17:53 AM 36.7430 42.9300 336° Northwest 418 481 36,000  Level FlightAware ADS-B
Sun 05:18:28 AM 36.8040 42.8960 336° Northwest 420 483 36,000  Level FlightAware ADS-B
Sun 05:19:18 AM 36.8920 42.8480 336° Northwest 421 484 36,000  Level FlightAware ADS-B
Sun 05:19:58 AM 36.9640 42.8080 336° Northwest 421 484 36,000  Level FlightAware ADS-B
Sun 05:20:38 AM 37.0360 42.7680 336° Northwest 421 484 36,000  Level FlightAware ADS-B
Sun 05:21:23 AM 37.1170 42.7230 336° Northwest 422 486 36,000  Level FlightAware ADS-B
Sun 05:22:03 AM 37.1850 42.6850 336° Northwest 422 486 36,000  Level FlightAware ADS-B
Sun 05:22:48 AM 37.2600 42.6280 329° Northwest 412 474 36,000  Level FlightAware ADS-B
Sun 05:23:28 AM 37.3090 42.5520 309° West 412 474 36,000  Level FlightAware ADS-B
Sun 05:24:08 AM 37.3540 42.4750 306° West 412 474 36,000  Level FlightAware ADS-B
Sun 05:24:53 AM 37.4030 42.3910 306° West 413 475 36,000  Level FlightAware ADS-B
Sun 05:25:33 AM 37.4520 42.3100 307° West 415 478 36,000  Level FlightAware ADS-B
Sun 05:26:18 AM 37.5030 42.2250 307° West 415 478 36,000  Level FlightAware ADS-B
Sun 05:26:58 AM 37.5490 42.1480 307° West 415 478 36,000  Level FlightAware ADS-B
Sun 05:27:38 AM 37.5940 42.0710 306° West 415 478 36,000  Level FlightAware ADS-B
Sun 05:28:23 AM 37.6470 41.9820 307° West 414 476 36,000  Level FlightAware ADS-B
Sun 05:29:03 AM 37.6910 41.9080 307° West 415 478 36,000  Level FlightAware ADS-B
Sun 05:29:48 AM 37.7420 41.8200 306° West 414 476 36,000  Level FlightAware ADS-B
Sun 05:30:28 AM 37.7880 41.7410 306° West 414 476 36,000  Level FlightAware ADS-B
Sun 05:31:23 AM 37.8500 41.6360 307° West 413 475 36,000  Level FlightAware ADS-B
Sun 05:32:08 AM 37.8980 41.5530 306° West 413 475 36,000  Level FlightAware ADS-B
Sun 05:32:48 AM 37.9360 41.4870 306° West 413 475 36,000  Level FlightAware ADS-B
Sun 05:33:28 AM 37.9740 41.4200 306° West 413 475 36,000  Level FlightAware ADS-B
Sun 05:34:08 AM 38.0120 41.3530 306° West 413 475 36,000  Level FlightAware ADS-B
Sun 05:34:48 AM 38.0500 41.2860 306° West 413 475 36,000  Level FlightAware ADS-B
Sun 05:35:38 AM 38.0980 41.2030 306° West 413 475 36,000  Level FlightAware ADS-B
Sun 05:36:18 AM 38.1360 41.1360 306° West 413 475 36,000  Level FlightAware ADS-B
Sun 05:36:58 AM 38.1740 41.0690 306° West 413 475 36,000  Level FlightAware ADS-B
Sun 05:37:38 AM 38.2130 41.0020 307° West 413 475 36,000  Level FlightAware ADS-B
Sun 05:38:18 AM 38.2510 40.9360 306° West 413 475 36,000  Level FlightAware ADS-B
Sun 05:39:08 AM 38.2990 40.8520 306° West 413 475 36,000  Level FlightAware ADS-B
Sun 05:39:48 AM 38.3370 40.7850 306° West 413 475 36,000  Level FlightAware ADS-B
Sun 05:40:28 AM 38.3750 40.7180 306° West 413 475 36,000  Level FlightAware ADS-B
Sun 05:41:08 AM 38.4130 40.6510 306° West 413 475 36,000  Level FlightAware ADS-B
Sun 05:43:00 AM 38.4707 40.4033 287° West  Level Estimated
Sun 05:44:00 AM 38.5015 40.2704 286° West  Level Estimated
Sun 05:45:00 AM 38.5320 40.1374 286° West  Level Estimated
Sun 05:46:00 AM 38.5625 40.0043 286° West  Level Estimated
Sun 05:47:00 AM 38.5927 39.8711 286° West  Level Estimated
Sun 05:48:00 AM 38.6228 39.7378 286° West  Level Estimated
Sun 05:49:00 AM 38.6528 39.6044 286° West  Level Estimated
Sun 05:50:00 AM 38.6826 39.4708 286° West  Level Estimated
Sun 05:51:00 AM 38.7123 39.3372 286° West  Level Estimated
Sun 05:52:00 AM 38.7418 39.2034 286° West  Level Estimated
Sun 05:53:00 AM 38.7712 39.0696 286° West  Level Estimated
Sun 05:54:00 AM 38.8004 38.9356 286° West  Level Estimated
Sun 05:55:00 AM 38.8294 38.8015 286° West  Level Estimated
Sun 05:56:00 AM 38.8583 38.6673 285° West  Level Estimated
Sun 05:57:00 AM 38.8871 38.5330 285° West  Level Estimated
Sun 05:58:00 AM 38.9157 38.3986 285° West  Level Estimated
Sun 05:59:00 AM 38.9441 38.2640 285° West  Level Estimated
Sun 06:00:00 AM 38.9724 38.1294 285° West  Level Estimated
Sun 06:01:00 AM 39.0005 37.9947 285° West  Level Estimated
Sun 06:02:00 AM 39.0285 37.8598 285° West  Level Estimated
Sun 06:03:00 AM 39.0564 37.7248 285° West  Level Estimated
Sun 06:04:00 AM 39.0840 37.5898 285° West  Level Estimated
Sun 06:05:00 AM 39.1115 37.4546 285° West  Level Estimated
Sun 06:06:00 AM 39.1389 37.3193 285° West  Level Estimated
Sun 06:07:00 AM 39.1661 37.1840 285° West  Level Estimated
Sun 06:08:00 AM 39.1931 37.0485 284° West  Level Estimated
Sun 06:09:00 AM 39.2200 36.9129 284° West  Level Estimated
Sun 06:10:00 AM 39.2467 36.7772 284° West  Level Estimated
Sun 06:11:00 AM 39.2733 36.6414 284° West  Level Estimated
Sun 06:12:00 AM 39.2997 36.5055 284° West  Level Estimated
Sun 06:13:00 AM 39.3259 36.3695 284° West  Level Estimated
Sun 06:14:00 AM 39.3520 36.2334 284° West  Level Estimated
Sun 06:15:00 AM 39.3780 36.0972 284° West  Level Estimated
Sun 06:16:00 AM 39.4037 35.9609 284° West  Level Estimated
Sun 06:17:00 AM 39.4294 35.8245 284° West  Level Estimated
Sun 06:18:00 AM 39.4548 35.6880 284° West  Level Estimated
Sun 06:19:00 AM 39.4801 35.5514 284° West  Level Estimated
Sun 06:19:18 AM 39.5840 35.1240 283° West 405 466 36,000  Level FlightAware ADS-B
Sun 06:20:00 AM 39.5053 35.4147 283° West  Level Estimated
Sun 06:20:38 AM 39.6240 34.9440 286° West 408 470 36,000  Level FlightAware ADS-B
Sun 06:22:03 AM 39.6690 34.7350 286° West 410 472 36,000  Level FlightAware ADS-B
Sun 06:23:08 AM 39.7020 34.5830 286° West 411 473 36,000  Level FlightAware ADS-B
Sun 06:24:13 AM 39.7350 34.4320 286° West 407 468 36,000  Level FlightAware ADS-B
Sun 06:24:53 AM 39.7560 34.3330 285° West 406 467 36,000  Level FlightAware ADS-B
Sun 06:25:48 AM 39.7830 34.2070 286° West 407 468 36,000  Level FlightAware ADS-B
Sun 06:26:33 AM 39.8060 34.0990 286° West 409 471 36,000  Level FlightAware ADS-B
Sun 06:27:23 AM 39.8310 33.9790 285° West 409 471 36,000  Level FlightAware ADS-B
Sun 06:28:03 AM 39.8510 33.8850 286° West 408 470 36,000  Level FlightAware ADS-B
Sun 06:29:28 AM 39.8930 33.6840 285° West 405 466 36,000  Level FlightAware ADS-B
Sun 06:30:28 AM 39.9210 33.5450 285° West 406 467 36,000  Level FlightAware ADS-B
Sun 06:31:03 AM 39.9390 33.4610 286° West 406 467 36,000  Level FlightAware ADS-B
Sun 06:32:28 AM 39.9790 33.2610 285° West 404 465 36,000  Level FlightAware ADS-B
Sun 06:33:38 AM 40.0130 33.0960 285° West 404 465 36,000  Level FlightAware ADS-B
Sun 06:34:28 AM 40.0360 32.9810 285° West 404 465 36,000  Level FlightAware ADS-B
Sun 06:35:53 AM 40.0740 32.7790 284° West 401 461 36,000  Level FlightAware ADS-B
Sun 06:37:28 AM 40.1060 32.5530 281° West 397 457 36,000  Level FlightAware ADS-B
Sun 06:38:13 AM 40.1210 32.4490 281° West 398 458 36,000  Level FlightAware ADS-B
Sun 06:40:00 AM 40.1586 32.2008 281° West  Level Estimated
Sun 06:40:33 AM 40.1660 32.1170 281° West 398 458 36,000  Level FlightAware ADS-B
Sun 06:43:00 AM 40.2165 31.7755 281° West  Level Estimated
Sun 06:43:03 AM 40.2070 31.7640 281° West 394 453 36,000  Level FlightAware ADS-B
Sun 06:44:13 AM 40.2250 31.5990 278° West 393 452 36,000  Level FlightAware ADS-B
Sun 06:45:08 AM 40.2390 31.4710 278° West 391 450 36,000  Level FlightAware ADS-B
Sun 06:45:53 AM 40.2510 31.3650 278° West 390 449 36,000  Level FlightAware ADS-B
Sun 06:46:43 AM 40.2630 31.2520 278° West 390 449 36,000  Level FlightAware ADS-B
Sun 06:48:03 AM 40.2820 31.0670 278° West 391 450 36,000  Level FlightAware ADS-B
Sun 06:49:03 AM 40.2970 30.9310 278° West 389 448 36,000  Level FlightAware ADS-B
Sun 06:50:03 AM 40.3130 30.7770 278° West 389 448 36,000  Level FlightAware ADS-B
Sun 06:50:43 AM 40.3230 30.6820 278° West 392 451 36,000  Level FlightAware ADS-B
Sun 06:51:28 AM 40.3350 30.5760 278° West 392 451 36,000  Level FlightAware ADS-B
Sun 06:52:08 AM 40.3450 30.4800 278° West 393 452 36,000  Level FlightAware ADS-B
Sun 06:52:53 AM 40.3560 30.3780 278° West 393 452 36,000  Level FlightAware ADS-B
Sun 06:53:33 AM 40.3670 30.2790 278° West 395 455 36,000  Level FlightAware ADS-B
Sun 06:54:13 AM 40.3760 30.1850 277° West 395 455 36,000  Level FlightAware ADS-B
Sun 06:54:58 AM 40.3870 30.0800 278° West 399 459 36,000  Level FlightAware ADS-B
Sun 06:55:38 AM 40.3980 29.9800 278° West 404 465 36,000  Level FlightAware ADS-B
Sun 06:56:23 AM 40.4090 29.8740 278° West 406 467 36,000  Level FlightAware ADS-B
Sun 06:57:03 AM 40.4190 29.7740 278° West 407 468 36,000  Level FlightAware ADS-B
Sun 06:57:43 AM 40.4290 29.6760 278° West 408 470 36,000  Level FlightAware ADS-B
Sun 06:58:28 AM 40.4400 29.5640 277° West 409 471 36,000  Level FlightAware ADS-B
Sun 06:59:08 AM 40.4500 29.4670 278° West 410 472 36,000  Level FlightAware ADS-B
Sun 06:59:48 AM 40.4590 29.3710 277° West 414 476 36,000  Level FlightAware ADS-B
Sun 07:00:33 AM 40.4700 29.2570 277° West 416 479 36,000  Level FlightAware ADS-B
Sun 07:01:13 AM 40.4890 29.1570 284° West 430 495 36,000  Level FlightAware ADS-B
Sun 07:01:58 AM 40.5200 29.0430 290° West 434 499 36,000  Level FlightAware ADS-B
Sun 07:02:38 AM 40.5470 28.9460 290° West 438 504 36,000  Level FlightAware ADS-B
Sun 07:03:18 AM 40.5750 28.8460 290° West 441 507 36,000  Level FlightAware ADS-B
Sun 07:04:03 AM 40.6000 28.7300 286° West 434 499 36,000  Level FlightAware ADS-B
Sun 07:04:43 AM 40.6140 28.6280 280° West 431 496 36,000  Level FlightAware ADS-B
Sun 07:05:28 AM 40.6290 28.5120 280° West 431 496 36,000  Level FlightAware ADS-B
Sun 07:06:08 AM 40.6420 28.4070 279° West 432 497 36,000  Level FlightAware ADS-B
Sun 07:06:48 AM 40.6550 28.3010 279° West 435 501 36,000  Level FlightAware ADS-B
Sun 07:07:33 AM 40.6690 28.1870 279° West 437 503 36,000  Level FlightAware ADS-B
Sun 07:08:13 AM 40.6810 28.0810 279° West 437 503 36,000  Level FlightAware ADS-B
Sun 07:08:58 AM 40.6950 27.9620 279° West 439 505 36,000  Level FlightAware ADS-B
Sun 07:09:38 AM 40.7080 27.8560 279° West 440 506 36,000  Level FlightAware ADS-B
Sun 07:10:18 AM 40.7200 27.7500 279° West 440 506 36,000  Level FlightAware ADS-B
Sun 07:11:03 AM 40.7330 27.6360 279° West 439 505 36,000  Level FlightAware ADS-B
Sun 07:11:43 AM 40.7450 27.5280 278° West 442 509 36,000  Level FlightAware ADS-B
Sun 07:12:23 AM 40.7570 27.4260 279° West 443 510 36,000  Level FlightAware ADS-B
Sun 07:13:08 AM 40.7710 27.3010 278° West 444 511 36,000  Level FlightAware ADS-B
Sun 07:13:48 AM 40.7830 27.1910 278° West 446 513 36,000  Level FlightAware ADS-B
Sun 07:14:23 AM 40.7920 27.1080 278° West 446 513 36,000  Level FlightAware ADS-B
Sun 07:15:03 AM 40.8050 26.9880 278° West 448 516 36,000  Level FlightAware ADS-B
Sun 07:15:58 AM 40.8200 26.8430 278° West 451 519 36,000  Level FlightAware ADS-B
Sun 07:16:38 AM 40.8320 26.7370 279° West 453 521 36,000  Level FlightAware ADS-B
Sun 07:17:23 AM 40.8460 26.6030 278° West 457 526 36,000  Level FlightAware ADS-B
Sun 07:17:53 AM 40.8540 26.5260 278° West 459 528 36,000  Level FlightAware ADS-B
Sun 07:18:58 AM 40.8720 26.3520 278° West 459 528 36,000  Level FlightAware ADS-B
Sun 07:19:38 AM 40.8800 26.2350 275° West 455 524 36,000  Level FlightAware ADS-B
Sun 07:20:23 AM 40.8750 26.1070 267° West 453 521 36,000  Level FlightAware ADS-B
Sun 07:21:03 AM 40.8690 25.9990 266° West 453 521 36,000  Level FlightAware ADS-B
Sun 07:21:48 AM 40.8620 25.8730 266° West 453 521 36,000  Level FlightAware ADS-B
Sun 07:22:18 AM 40.8580 25.8000 266° West 452 520 36,000  Level FlightAware ADS-B
Sun 07:23:08 AM 40.8500 25.6580 266° West 453 521 36,000  Level FlightAware ADS-B
Sun 07:23:53 AM 40.8420 25.5450 265° West 453 521 36,000  Level FlightAware ADS-B
Sun 07:24:33 AM 40.8360 25.4200 266° West 455 524 36,000  Level FlightAware ADS-B
Sun 07:25:18 AM 40.8280 25.3010 265° West 457 526 36,000  Level FlightAware ADS-B
Sun 07:25:53 AM 40.8220 25.1990 266° West 457 526 36,000  Level FlightAware ADS-B
Sun 07:26:38 AM 40.8140 25.0740 265° West 456 525 36,000  Level FlightAware ADS-B
Sun 07:27:38 AM 40.8040 24.9180 265° West 457 526 36,000  Level FlightAware ADS-B
Sun 07:28:13 AM 40.7980 24.8180 266° West 459 528 36,000  Level FlightAware ADS-B
Sun 07:28:58 AM 40.7900 24.6940 265° West 460 529 36,000  Level FlightAware ADS-B
Sun 07:29:43 AM 40.7810 24.5660 265° West 460 529 36,000  Level FlightAware ADS-B
Sun 07:30:23 AM 40.7740 24.4530 265° West 459 528 36,000  Level FlightAware ADS-B
Sun 07:31:08 AM 40.7650 24.3290 265° West 460 529 36,000  Level FlightAware ADS-B
Sun 07:31:48 AM 40.7580 24.2230 265° West 461 531 36,000  Level FlightAware ADS-B
Sun 07:32:28 AM 40.7490 24.1040 264° West 460 529 36,000  Level FlightAware ADS-B
Sun 07:33:13 AM 40.7400 23.9800 265° West 460 529 36,000  Level FlightAware ADS-B
Sun 07:33:53 AM 40.7320 23.8690 265° West 460 529 36,000  Level FlightAware ADS-B
Sun 07:34:38 AM 40.7230 23.7420 265° West 460 529 36,000  Level FlightAware ADS-B
Sun 07:35:18 AM 40.7150 23.6310 265° West 461 531 36,000  Level FlightAware ADS-B
Sun 07:35:58 AM 40.7060 23.5180 264° West 463 533 36,000  Level FlightAware ADS-B
Sun 07:36:43 AM 40.6970 23.4010 264° West 464 534 36,000  Level FlightAware ADS-B
Sun 07:37:23 AM 40.6870 23.2770 264° West 464 534 36,000  Level FlightAware ADS-B
Sun 07:38:08 AM 40.6770 23.1440 264° West 465 535 36,000  Level FlightAware ADS-B
Sun 07:38:48 AM 40.6680 23.0320 264° West 467 537 36,000  Level FlightAware ADS-B
Sun 07:39:28 AM 40.6630 22.9190 267° West 468 539 36,000  Level FlightAware ADS-B
Sun 07:40:13 AM 40.6610 22.7930 269° West 471 542 36,000  Level FlightAware ADS-B
Sun 07:40:53 AM 40.6610 22.6760 270° West 474 545 36,000  Level FlightAware ADS-B
Sun 07:41:38 AM 40.6620 22.5470 271° West 474 545 36,000  Level FlightAware ADS-B
Sun 07:42:08 AM 40.6620 22.4690 270° West 475 547 36,000  Level FlightAware ADS-B
Sun 07:43:03 AM 40.6610 22.3020 270° West 478 550 36,000  Level FlightAware ADS-B
Sun 07:43:43 AM 40.6610 22.1840 270° West 478 550 36,000  Level FlightAware ADS-B
Sun 07:44:23 AM 40.6600 22.0710 269° West 479 551 36,000  Level FlightAware ADS-B
Sun 07:45:08 AM 40.6590 21.9440 269° West 479 551 36,000  Level FlightAware ADS-B
Sun 07:45:48 AM 40.6580 21.8190 269° West 481 554 36,000  Level FlightAware ADS-B
Sun 07:46:28 AM 40.6570 21.7010 269° West 481 554 36,000  Level FlightAware ADS-B
Sun 07:47:13 AM 40.6560 21.5720 269° West 480 552 36,000  Level FlightAware ADS-B
Sun 07:47:53 AM 40.6540 21.4580 269° West 479 551 36,000  Level FlightAware ADS-B
Sun 07:48:38 AM 40.6530 21.3250 269° West 477 549 36,000  Level FlightAware ADS-B
Sun 07:49:18 AM 40.6510 21.2090 269° West 477 549 36,000  Level FlightAware ADS-B
Sun 07:50:13 AM 40.6490 21.0560 269° West 477 549 36,000  Level FlightAware ADS-B
Sun 07:50:53 AM 40.6480 20.9510 269° West 477 549 36,000  Level FlightAware ADS-B
Sun 07:51:33 AM 40.6480 20.8330 270° West 477 549 36,000  Level FlightAware ADS-B
Sun 07:52:23 AM 40.6480 20.6860 270° West 475 547 36,000 333 Level FlightAware ADS-B
Sun 07:53:03 AM 40.6480 20.5640 270° West 476 548 36,500 1,425 Climbing FlightAware ADS-B
Sun 07:53:43 AM 40.6470 20.4520 269° West 469 540 37,900 1,059 Climbing FlightAware ADS-B
Sun 07:54:28 AM 40.6470 20.3220 270° West 470 541 38,000 71 Climbing FlightAware ADS-B
Sun 07:55:08 AM 40.6460 20.2090 269° West 466 536 38,000  Level FlightAware ADS-B
Sun 07:55:48 AM 40.6450 20.1040 269° West 463 533 38,000  Level FlightAware ADS-B
Sun 07:56:33 AM 40.6440 19.9730 269° West 462 532 38,000  Level FlightAware ADS-B
Sun 07:57:13 AM 40.6430 19.8620 269° West 461 531 38,000  Level FlightAware ADS-B
Sun 07:57:58 AM 40.6420 19.7380 269° West 463 533 38,000  Level FlightAware ADS-B
Sun 07:58:53 AM 40.6400 19.5840 269° West 461 531 38,000  Level FlightAware ADS-B
Sun 07:59:33 AM 40.6390 19.4620 269° West 459 528 38,000  Level FlightAware ADS-B
Sun 08:00:13 AM 40.6370 19.3520 269° West 458 527 38,000  Level FlightAware ADS-B
Sun 08:00:58 AM 40.6370 19.2240 270° West 458 527 38,000  Level FlightAware ADS-B
Sun 08:01:53 AM 40.6390 19.0720 271° West 458 527 38,000  Level FlightAware ADS-B
Sun 08:02:38 AM 40.6400 18.9440 271° West 458 527 38,000  Level FlightAware ADS-B
Sun 08:03:18 AM 40.6400 18.8320 270° West 458 527 38,000  Level FlightAware ADS-B
Sun 08:04:03 AM 40.6480 18.7110 275° West 459 528 38,000  Level FlightAware ADS-B
Sun 08:04:43 AM 40.6570 18.6010 276° West 459 528 38,000  Level FlightAware ADS-B
Sun 08:05:18 AM 40.6630 18.5050 275° West 460 529 38,000  Level FlightAware ADS-B
Sun 08:05:53 AM 40.6690 18.4050 275° West 461 531 38,000  Level FlightAware ADS-B
Sun 08:06:33 AM 40.6760 18.2940 275° West 461 531 38,000  Level FlightAware ADS-B
Sun 08:07:18 AM 40.6830 18.1690 274° West 461 531 38,000  Level FlightAware ADS-B
Sun 08:07:58 AM 40.6900 18.0530 275° West 460 529 38,000  Level FlightAware ADS-B
Sun 08:08:38 AM 40.6970 17.9420 275° West 460 529 38,000  Level FlightAware ADS-B
Sun 08:09:23 AM 40.7050 17.8170 275° West 460 529 38,000  Level FlightAware ADS-B
Sun 08:10:03 AM 40.7120 17.7090 275° West 461 531 38,000  Level FlightAware ADS-B
Sun 08:10:48 AM 40.7200 17.5790 275° West 460 529 38,000  Level FlightAware ADS-B
Sun 08:11:28 AM 40.7270 17.4670 275° West 460 529 38,000  Level FlightAware ADS-B
Sun 08:12:13 AM 40.7340 17.3460 274° West 459 528 38,000  Level FlightAware ADS-B
Sun 08:12:53 AM 40.7410 17.2330 275° West 458 527 38,000  Level FlightAware ADS-B
Sun 08:13:33 AM 40.7470 17.1220 274° West 458 527 38,000  Level FlightAware ADS-B
Sun 08:14:18 AM 40.7550 16.9930 275° West 460 529 38,000  Level FlightAware ADS-B
Sun 08:14:58 AM 40.7610 16.8820 274° West 461 531 38,000  Level FlightAware ADS-B
Sun 08:15:43 AM 40.7680 16.7580 274° West 460 529 38,000  Level FlightAware ADS-B
Sun 08:16:23 AM 40.7740 16.6480 274° West 460 529 38,000  Level FlightAware ADS-B
Sun 08:17:03 AM 40.7800 16.5350 274° West 460 529 38,000  Level FlightAware ADS-B
Sun 08:17:48 AM 40.7860 16.4060 274° West 459 528 38,000  Level FlightAware ADS-B
Sun 08:18:28 AM 40.7920 16.2940 274° West 457 526 38,000  Level FlightAware ADS-B
Sun 08:19:08 AM 40.7970 16.1860 274° West 457 526 38,000  Level FlightAware ADS-B
Sun 08:19:53 AM 40.8030 16.0630 274° West 457 526 38,000  Level FlightAware ADS-B
Sun 08:20:33 AM 40.8050 15.9510 271° West 457 526 38,000  Level FlightAware ADS-B
Sun 08:21:18 AM 40.8080 15.8250 272° West 458 527 38,000  Level FlightAware ADS-B
Sun 08:21:58 AM 40.8110 15.7120 272° West 458 527 38,000  Level FlightAware ADS-B
Sun 08:22:43 AM 40.8140 15.5890 272° West 460 529 38,000  Level FlightAware ADS-B
Sun 08:23:23 AM 40.8170 15.4750 272° West 461 531 38,000  Level FlightAware ADS-B
Sun 08:24:03 AM 40.8200 15.3660 272° West 462 532 38,000  Level FlightAware ADS-B
Sun 08:24:48 AM 40.8220 15.2370 271° West 464 534 38,000  Level FlightAware ADS-B
Sun 08:25:28 AM 40.8250 15.1210 272° West 464 534 38,000  Level FlightAware ADS-B
Sun 08:26:08 AM 40.8270 15.0090 271° West 464 534 38,000  Level FlightAware ADS-B
Sun 08:26:53 AM 40.8290 14.8830 271° West 465 535 38,000  Level FlightAware ADS-B
Sun 08:27:33 AM 40.8310 14.7740 271° West 464 534 38,000  Level FlightAware ADS-B
Sun 08:28:18 AM 40.8330 14.6430 271° West 465 535 38,000  Level FlightAware ADS-B
Sun 08:28:58 AM 40.8350 14.5280 271° West 463 533 38,000  Level FlightAware ADS-B
Sun 08:29:43 AM 40.8370 14.4040 271° West 463 533 38,000  Level FlightAware ADS-B
Sun 08:30:23 AM 40.8390 14.2920 271° West 463 533 38,000  Level FlightAware ADS-B
Sun 08:31:03 AM 40.8400 14.1780 271° West 462 532 38,000  Level FlightAware ADS-B
Sun 08:31:48 AM 40.8410 14.0510 271° West 461 531 38,000  Level FlightAware ADS-B
Sun 08:32:28 AM 40.8430 13.9380 271° West 460 529 38,000  Level FlightAware ADS-B
Sun 08:33:13 AM 40.8440 13.8150 271° West 459 528 38,000  Level FlightAware ADS-B
Sun 08:33:53 AM 40.8450 13.7040 271° West 458 527 38,000  Level FlightAware ADS-B
Sun 08:34:33 AM 40.8450 13.5920 270° West 458 527 38,000  Level FlightAware ADS-B
Sun 08:35:18 AM 40.8460 13.4670 271° West 458 527 38,000  Level FlightAware ADS-B
Sun 08:35:58 AM 40.8470 13.3550 271° West 460 529 38,000  Level FlightAware ADS-B
Sun 08:36:48 AM 40.8470 13.2220 270° West 460 529 38,000  Level FlightAware ADS-B
Sun 08:37:38 AM 40.8480 13.0930 271° West 459 528 38,000  Level FlightAware ADS-B
Sun 08:38:33 AM 40.8480 12.9330 270° West 459 528 38,000  Level FlightAware ADS-B
Sun 08:39:13 AM 40.8480 12.8340 270° West 460 529 38,000  Level FlightAware ADS-B
Sun 08:39:53 AM 40.8480 12.7140 270° West 461 531 38,000  Level FlightAware ADS-B
Sun 08:40:28 AM 40.8480 12.6370 270° West 461 531 38,000  Level FlightAware ADS-B
Sun 08:41:13 AM 40.8480 12.4920 270° West 464 534 38,000  Level FlightAware ADS-B
Sun 08:42:03 AM 40.8470 12.3550 269° West 467 537 38,000  Level FlightAware ADS-B
Sun 08:42:48 AM 40.8470 12.2260 270° West 468 539 38,000 150 Level FlightAware ADS-B
Sun 08:43:23 AM 40.8460 12.1190 269° West 464 534 38,200 253 Climbing FlightAware ADS-B
Sun 08:44:23 AM 40.8450 11.9690 270° West 459 528 38,400 420 Climbing FlightAware ADS-B
Sun 08:45:03 AM 40.8440 11.8430 269° West 455 524 38,900 565 Climbing FlightAware ADS-B
Sun 08:45:48 AM 40.8430 11.7190 269° West 454 522 39,200 424 Climbing FlightAware ADS-B
Sun 08:46:28 AM 40.8420 11.6060 269° West 454 522 39,500 316 Climbing FlightAware ADS-B
Sun 08:47:23 AM 40.8400 11.4590 269° West 454 522 39,700 333 Climbing FlightAware ADS-B
Sun 08:47:58 AM 40.8390 11.3650 269° West 454 522 40,000 225 Climbing FlightAware ADS-B
Sun 08:48:43 AM 40.8400 11.2550 271° West 453 521 40,000  Level FlightAware ADS-B
Sun 08:49:23 AM 40.8400 11.1450 270° West 453 521 40,000  Level FlightAware ADS-B
Sun 08:50:13 AM 40.8430 10.9740 271° West 450 518 40,000  Level FlightAware ADS-B
Sun 08:51:13 AM 40.8460 10.8040 271° West 449 517 40,000  Level FlightAware ADS-B
Sun 08:51:53 AM 40.8480 10.7040 272° West 450 518 40,000  Level FlightAware ADS-B
Sun 08:52:43 AM 40.8500 10.5690 271° West 451 519 40,000  Level FlightAware ADS-B
Sun 08:53:43 AM 40.8520 10.4200 271° West 453 521 40,000  Level FlightAware ADS-B
Sun 08:54:23 AM 40.8540 10.3150 271° West 455 524 40,000  Level FlightAware ADS-B
Sun 08:55:08 AM 40.8560 10.1620 271° West 455 524 40,000  Level FlightAware ADS-B
Sun 08:55:48 AM 40.8570 10.0480 271° West 454 522 40,000  Level FlightAware ADS-B
Sun 08:56:23 AM 40.8580 9.9520 271° West 452 520 40,000  Level FlightAware ADS-B
Sun 08:57:13 AM 40.8590 9.8230 271° West 451 519 40,000  Level FlightAware ADS-B
Sun 08:57:58 AM 40.8610 9.6920 271° West 448 516 40,000  Level FlightAware ADS-B
Sun 08:58:38 AM 40.8620 9.5820 271° West 446 513 40,000  Level FlightAware ADS-B
Sun 08:59:18 AM 40.8620 9.4750 270° West 445 512 40,000  Level FlightAware ADS-B
Sun 09:00:03 AM 40.8630 9.3520 271° West 446 513 40,000  Level FlightAware ADS-B
Sun 09:00:43 AM 40.8640 9.2400 271° West 446 513 40,000  Level FlightAware ADS-B
Sun 09:01:28 AM 40.8640 9.1190 270° West 448 516 40,000  Level FlightAware ADS-B
Sun 09:02:08 AM 40.8640 9.0080 270° West 449 517 40,000  Level FlightAware ADS-B
Sun 09:03:38 AM 40.8650 8.7730 270° West 447 514 40,000  Level FlightAware ADS-B
Sun 09:06:00 AM 40.8521 8.4341 267° West  Level Estimated
Sun 09:06:03 AM 40.8660 8.3820 267° West 437 503 40,000  Level FlightAware ADS-B
Sun 09:08:00 AM 40.8542 8.1028 267° West  Level Estimated
Sun 09:09:00 AM 40.8479 7.9597 267° West  Level Estimated
Sun 09:09:38 AM 40.9020 7.8100 267° West 440 506 40,000  Level FlightAware ADS-B
Sun 09:10:53 AM 40.9150 7.6100 275° West 438 504 40,000  Level FlightAware ADS-B
Sun 09:12:03 AM 40.9260 7.4230 275° West 445 512 40,000  Level FlightAware ADS-B
Sun 09:13:18 AM 40.9380 7.2240 275° West 436 502 40,000  Level FlightAware ADS-B
Sun 09:14:28 AM 40.9480 7.0390 274° West 435 501 40,000  Level FlightAware ADS-B
Sun 09:15:53 AM 40.9610 6.8150 274° West 423 487 40,000 -100 Level FlightAware ADS-B
Sun 09:16:28 AM 40.9650 6.7350 274° West 417 480 39,800 -1,137 Descending FlightAware ADS-B
Sun 09:17:28 AM 40.9740 6.5720 274° West 425 489 38,200 -1,440 Descending FlightAware ADS-B
Sun 09:18:08 AM 40.9790 6.4760 274° West 426 490 37,400 -847 Descending FlightAware ADS-B
Sun 09:18:53 AM 40.9850 6.3520 274° West 418 481 37,000 -282 Descending FlightAware ADS-B
Sun 09:19:33 AM 40.9900 6.2510 274° West 418 481 37,000  Level FlightAware ADS-B
Sun 09:20:18 AM 40.9960 6.1360 274° West 415 478 37,000  Level FlightAware ADS-B
Sun 09:20:58 AM 41.0010 6.0340 274° West 414 476 37,000  Level FlightAware ADS-B
Sun 09:21:43 AM 41.0060 5.9120 273° West 414 476 37,000  Level FlightAware ADS-B
Sun 09:22:38 AM 41.0130 5.7680 274° West 415 478 37,000  Level FlightAware ADS-B
Sun 09:23:18 AM 41.0170 5.6710 273° West 418 481 37,000  Level FlightAware ADS-B
Sun 09:23:58 AM 41.0220 5.5680 274° West 420 483 37,000  Level FlightAware ADS-B
Sun 09:24:43 AM 41.0270 5.4520 273° West 421 484 37,000  Level FlightAware ADS-B
Sun 09:25:23 AM 41.0310 5.3520 273° West 421 484 37,000  Level FlightAware ADS-B
Sun 09:26:08 AM 41.0360 5.2310 273° West 421 484 37,000  Level FlightAware ADS-B
Sun 09:26:48 AM 41.0400 5.1400 273° West 421 484 37,000  Level FlightAware ADS-B
Sun 09:27:28 AM 41.0430 5.0430 272° West 37,000  Level FlightAware ADS-B
Sun 09:28:13 AM 41.0480 4.9200 273° West 419 482 37,000  Level FlightAware ADS-B
Sun 09:28:53 AM 41.0520 4.8200 273° West 416 479 37,000  Level FlightAware ADS-B
Sun 09:29:38 AM 41.0560 4.7060 273° West 413 475 37,000  Level FlightAware ADS-B
Sun 09:30:18 AM 41.0640 4.6040 276° West 407 468 37,000  Level FlightAware ADS-B
Sun 09:30:58 AM 41.0740 4.5100 278° West 406 467 37,000  Level FlightAware ADS-B
Sun 09:31:43 AM 41.0870 4.3950 279° West 405 466 37,000  Level FlightAware ADS-B
Sun 09:32:23 AM 41.0970 4.2970 278° West 402 463 37,000  Level FlightAware ADS-B
Sun 09:33:08 AM 41.1090 4.1860 278° West 402 463 37,000  Level FlightAware ADS-B
Sun 09:33:48 AM 41.1190 4.0890 278° West 403 464 37,000  Level FlightAware ADS-B
Sun 09:34:33 AM 41.1300 3.9810 278° West 404 465 37,000  Level FlightAware ADS-B
Sun 09:35:13 AM 41.1400 3.8820 278° West 405 466 37,000  Level FlightAware ADS-B
Sun 09:35:53 AM 41.1500 3.7850 278° West 405 466 37,000  Level FlightAware ADS-B
Sun 09:36:38 AM 41.1610 3.6720 277° West 406 467 37,000  Level FlightAware ADS-B
Sun 09:37:18 AM 41.1710 3.5740 278° West 406 467 37,000  Level FlightAware ADS-B
Sun 09:38:03 AM 41.1820 3.4620 277° West 405 466 37,000  Level FlightAware ADS-B
Sun 09:38:43 AM 41.1920 3.3650 278° West 404 465 37,000  Level FlightAware ADS-B
Sun 09:39:23 AM 41.2010 3.2670 277° West 405 466 37,000  Level FlightAware ADS-B
Sun 09:40:08 AM 41.2120 3.1560 278° West 407 468 37,000  Level FlightAware ADS-B
Sun 09:40:48 AM 41.2220 3.0530 277° West 406 467 37,000  Level FlightAware ADS-B
Sun 09:41:28 AM 41.2310 2.9550 277° West 406 467 37,000  Level FlightAware ADS-B
Sun 09:42:13 AM 41.2410 2.8420 277° West 406 467 37,000  Level FlightAware ADS-B
Sun 09:42:58 AM 41.2520 2.7320 278° West 406 467 37,000  Level FlightAware ADS-B
Sun 09:43:48 AM 41.2630 2.6060 277° West 405 466 37,000  Level FlightAware ADS-B
Sun 09:44:33 AM 41.2740 2.4900 277° West 407 468 37,000  Level FlightAware ADS-B
Sun 09:45:18 AM 41.2830 2.3820 276° West 408 470 37,000  Level FlightAware ADS-B
Sun 09:45:58 AM 41.2920 2.2820 277° West 408 470 37,000  Level FlightAware ADS-B
Sun 09:46:38 AM 41.3010 2.1810 277° West 408 470 37,000  Level FlightAware ADS-B
Sun 09:47:38 AM 41.2990 2.0330 269° West 413 475 37,000  Level FlightAware ADS-B
Sun 09:48:18 AM 41.2870 1.9330 261° West 414 476 37,000  Level FlightAware ADS-B
Sun 09:49:03 AM 41.2700 1.8170 259° West 413 475 37,000  Level FlightAware ADS-B
Sun 09:49:43 AM 41.2560 1.7180 259° West 413 475 37,000  Level FlightAware ADS-B
Sun 09:50:28 AM 41.2400 1.6080 259° West 409 471 37,000  Level FlightAware ADS-B
Sun 09:51:08 AM 41.2260 1.5100 259° West 410 472 37,000  Level FlightAware ADS-B
Sun 09:51:43 AM 41.2140 1.4250 259° West 409 471 37,000  Level FlightAware ADS-B
Sun 09:52:33 AM 41.1960 1.2980 259° West 409 471 37,000  Level FlightAware ADS-B
Sun 09:53:13 AM 41.1820 1.2000 259° West 410 472 37,000  Level FlightAware ADS-B
Sun 09:53:53 AM 41.1670 1.1010 259° West 409 471 37,000  Level FlightAware ADS-B
Sun 09:54:33 AM 41.1520 1.0030 259° West 410 472 37,000  Level FlightAware ADS-B
Sun 09:55:18 AM 41.1360 0.8950 259° West 409 471 37,000  Level FlightAware ADS-B
Sun 09:56:03 AM 41.1190 0.7810 259° West 409 471 37,000  Level FlightAware ADS-B
Sun 09:56:43 AM 41.1040 0.6820 259° West 410 472 37,000  Level FlightAware ADS-B
Sun 09:57:38 AM 41.0860 0.5590 259° West 410 472 37,000  Level FlightAware ADS-B
Sun 09:58:18 AM 41.0720 0.4670 259° West 410 472 37,000  Level FlightAware ADS-B
Sun 09:59:03 AM 41.0520 0.3420 258° West 411 473 37,000  Level FlightAware ADS-B
Sun 09:59:48 AM 41.0350 0.2310 259° West 411 473 37,000  Level FlightAware ADS-B
Sun 10:00:28 AM 41.0200 0.1320 259° West 411 473 37,000  Level FlightAware ADS-B
Sun 10:01:08 AM 41.0050 0.0370 258° West 410 472 37,000  Level FlightAware ADS-B
Sun 10:01:53 AM 40.9870 -0.0740 258° West 410 472 37,000  Level FlightAware ADS-B
Sun 10:02:33 AM 40.9710 -0.1780 259° West 411 473 37,000  Level FlightAware ADS-B
Sun 10:03:18 AM 40.9540 -0.2850 258° West 411 473 37,000  Level FlightAware ADS-B
Sun 10:03:58 AM 40.9390 -0.3770 258° West 408 470 37,000  Level FlightAware ADS-B
Sun 10:04:38 AM 40.9220 -0.4810 258° West 407 468 37,000  Level FlightAware ADS-B
Sun 10:05:23 AM 40.9040 -0.5900 258° West 407 468 37,000  Level FlightAware ADS-B
Sun 10:06:03 AM 40.8880 -0.6890 258° West 407 468 37,000  Level FlightAware ADS-B
Sun 10:06:43 AM 40.8710 -0.7850 257° West 407 468 37,000  Level FlightAware ADS-B
Sun 10:07:28 AM 40.8440 -0.8900 251° West 408 470 37,000  Level FlightAware ADS-B
Sun 10:08:08 AM 40.8200 -0.9760 250° West 408 470 37,000  Level FlightAware ADS-B
Sun 10:08:48 AM 40.7920 -1.0780 250° West 407 468 37,000  Level FlightAware ADS-B
Sun 10:09:33 AM 40.7630 -1.1810 250° West 408 470 37,000  Level FlightAware ADS-B
Sun 10:10:13 AM 40.7380 -1.2720 250° West 407 468 37,000  Level FlightAware ADS-B
Sun 10:10:58 AM 40.7090 -1.3750 250° West 406 467 37,000  Level FlightAware ADS-B
Sun 10:11:38 AM 40.6810 -1.4730 249° West 405 466 37,000  Level FlightAware ADS-B
Sun 10:12:18 AM 40.6550 -1.5660 250° West 405 466 37,000  Level FlightAware ADS-B
Sun 10:13:03 AM 40.6260 -1.6670 249° West 405 466 37,000  Level FlightAware ADS-B
Sun 10:13:43 AM 40.6000 -1.7590 250° West 404 465 37,000  Level FlightAware ADS-B
Sun 10:14:28 AM 40.5700 -1.8630 249° West 405 466 37,000  Level FlightAware ADS-B
Sun 10:15:08 AM 40.5430 -1.9570 249° West 405 466 37,000  Level FlightAware ADS-B
Sun 10:15:53 AM 40.5140 -2.0580 249° West 405 466 37,000  Level FlightAware ADS-B
Sun 10:16:33 AM 40.4870 -2.1510 249° West 405 466 37,000  Level FlightAware ADS-B
Sun 10:17:13 AM 40.4610 -2.2420 249° West 406 467 37,000  Level FlightAware ADS-B
Sun 10:17:58 AM 40.4310 -2.3450 249° West 407 468 37,000  Level FlightAware ADS-B
Sun 10:18:38 AM 40.4030 -2.4400 249° West 408 470 37,000  Level FlightAware ADS-B
Sun 10:19:23 AM 40.3740 -2.5420 250° West 405 466 37,000  Level FlightAware ADS-B
Sun 10:20:03 AM 40.3530 -2.6340 253° West 405 466 37,000  Level FlightAware ADS-B
Sun 10:20:43 AM 40.3340 -2.7290 255° West 405 466 37,000  Level FlightAware ADS-B
Sun 10:21:28 AM 40.3130 -2.8380 256° West 407 468 37,000  Level FlightAware ADS-B
Sun 10:22:08 AM 40.2930 -2.9360 255° West 408 470 37,000  Level FlightAware ADS-B
Sun 10:22:53 AM 40.2730 -3.0340 255° West 407 468 37,000  Level FlightAware ADS-B
Sun 10:23:33 AM 40.2520 -3.1350 255° West 408 470 37,000  Level FlightAware ADS-B
Sun 10:24:13 AM 40.2330 -3.2300 255° West 409 471 37,000  Level FlightAware ADS-B
Sun 10:24:58 AM 40.2100 -3.3390 255° West 410 472 37,000  Level FlightAware ADS-B
Sun 10:25:38 AM 40.1910 -3.4330 255° West 409 471 37,000  Level FlightAware ADS-B
Sun 10:26:23 AM 40.1690 -3.5410 255° West 411 473 37,000  Level FlightAware ADS-B
Sun 10:27:03 AM 40.1490 -3.6370 255° West 412 474 37,000  Level FlightAware ADS-B
Sun 10:27:43 AM 40.1280 -3.7330 254° West 411 473 37,000  Level FlightAware ADS-B
Sun 10:28:28 AM 40.1060 -3.8400 255° West 411 473 37,000  Level FlightAware ADS-B
Sun 10:29:08 AM 40.0850 -3.9380 254° West 412 474 37,000  Level FlightAware ADS-B
Sun 10:29:48 AM 40.0650 -4.0310 254° West 414 476 37,000  Level FlightAware ADS-B
Sun 10:30:33 AM 40.0420 -4.1390 254° West 414 476 37,000  Level FlightAware ADS-B
Sun 10:31:13 AM 40.0220 -4.2350 255° West 413 475 37,000  Level FlightAware ADS-B
Sun 10:31:58 AM 39.9980 -4.3460 254° West 412 474 37,000  Level FlightAware ADS-B
Sun 10:32:38 AM 39.9770 -4.4410 254° West 413 475 37,000  Level FlightAware ADS-B
Sun 10:33:23 AM 39.9540 -4.5470 254° West 414 476 37,000  Level FlightAware ADS-B
Sun 10:34:03 AM 39.9330 -4.6420 254° West 415 478 37,000  Level FlightAware ADS-B
Sun 10:34:43 AM 39.9140 -4.7330 255° West 415 478 37,000  Level FlightAware ADS-B
Sun 10:36:33 AM 39.8560 -4.9950 254° West 419 482 37,000  Level FlightAware ADS-B
Sun 10:37:43 AM 39.8190 -5.1600 254° West 417 480 37,000  Level FlightAware ADS-B
Sun 10:38:58 AM 39.7770 -5.3440 254° West 416 479 37,000  Level FlightAware ADS-B
Sun 10:41:00 AM 39.7103 -5.6173 252° West  Level Estimated
Sun 10:42:00 AM 39.6772 -5.7516 252° West  Level Estimated
Sun 10:43:00 AM 39.6440 -5.8857 252° West  Level Estimated
Sun 10:43:28 AM 39.6290 -5.9890 252° West 420 483 37,000  Level FlightAware ADS-B
Sun 10:46:00 AM 39.5428 -6.3275 252° West  Level Estimated
Sun 10:47:00 AM 39.5086 -6.4609 252° West  Level Estimated
Sun 10:48:00 AM 39.4741 -6.5941 252° West  Level Estimated
Sun 10:49:00 AM 39.4395 -6.7273 251° West  Level Estimated
Sun 10:50:00 AM 39.4048 -6.8602 251° West  Level Estimated
Sun 10:51:00 AM 39.3699 -6.9931 251° West  Level Estimated
Sun 10:52:00 AM 39.3349 -7.1258 251° West  Level Estimated
Sun 10:52:13 AM 39.3930 -7.2820 251° West 412 474 30,600  Level FlightAware ADS-B
Sun 10:52:43 AM 39.3820 -7.3550 259° West 412 474 29,100 -2,850 Descending FlightAware ADS-B
Sun 10:53:33 AM 39.3640 -7.4730 259° West 402 463 26,800 -2,296 Descending FlightAware ADS-B
Sun 10:54:38 AM 39.3400 -7.6230 258° West 383 441 24,700 -2,650 Descending FlightAware ADS-B
Sun 10:55:33 AM 39.3130 -7.7490 255° West 397 457 21,500 -2,922 Descending FlightAware ADS-B
Sun 10:56:33 AM 39.2800 -7.8740 251° West 390 449 19,100 -2,446 Descending FlightAware ADS-B
Sun 10:57:43 AM 39.2390 -8.0250 251° West 376 433 16,200 -2,486 Descending FlightAware ADS-B
Sun 10:58:53 AM 39.2000 -8.1720 251° West 370 426 13,300 -2,357 Descending FlightAware ADS-B
Sun 11:00:03 AM 39.1620 -8.3160 251° West 357 411 10,700 -2,160 Descending FlightAware ADS-B
Sun 11:00:33 AM 39.1460 -8.3760 251° West 350 403 9,700 -2,118 Descending FlightAware ADS-B
Sun 11:01:28 AM 39.1170 -8.4830 251° West 342 394 7,700 -1,971 Descending FlightAware ADS-B
Sun 11:01:43 AM 39.1100 -8.5110 252° West 329 379 7,400 -857 Descending FlightAware ADS-B
Sun 11:02:38 AM 39.0830 -8.6080 250° West 295 339 6,700 -750 Descending FlightAware ADS-B
Sun 11:03:03 AM 39.0720 -8.6480 251° West 278 320 6,400 -686 Descending FlightAware ADS-B
Sun 11:03:48 AM 39.0540 -8.7150 251° West 258 297 5,900 -600 Descending FlightAware ADS-B
Sun 11:04:13 AM 39.0450 -8.7510 252° West 246 283 5,700 -514 Descending FlightAware ADS-B
Sun 11:04:58 AM 39.0280 -8.8110 250° West 225 259 5,300 -514 Descending FlightAware ADS-B
Sun 11:05:23 AM 39.0200 -8.8410 251° West 213 245 5,100 -600 Descending FlightAware ADS-B
Sun 11:06:08 AM 39.0050 -8.8940 250° West 197 227 4,600 -686 Descending FlightAware ADS-B
Sun 11:06:33 AM 38.9980 -8.9220 252° West 195 224 4,300 -600 Descending FlightAware ADS-B
Sun 11:07:18 AM 38.9840 -8.9720 250° West 199 229 3,900 -343 Descending FlightAware ADS-B
Sun 11:07:43 AM 38.9770 -8.9990 252° West 177 204 3,900 -212 Level FlightAware ADS-B
Sun 11:08:43 AM 38.9480 -9.0460 232° Southwest 193 222 3,600 -480 Descending FlightAware ADS-B
Sun 11:08:58 AM 38.9350 -9.0540 206° Southwest 197 227 3,300 -1,114 Descending FlightAware ADS-B
Sun 11:09:53 AM 38.8900 -9.0780 203° Southwest 177 204 2,300 -1,050 Descending FlightAware ADS-B
Sun 11:10:18 AM 38.8720 -9.0880 203° Southwest 159 183 1,900 -771 Descending FlightAware ADS-B
Sun 11:11:03 AM 38.8440 -9.1030 203° Southwest 145 167 1,400 -771 Descending FlightAware ADS-B
Sun 11:11:28 AM 38.8280 -9.1110 201° Southwest 138 159 1,000 -857 Descending FlightAware ADS-B
Sun 11:12:13 AM 38.8000 -9.1260 203° Southwest 141 162 400 -514 Descending FlightAware ADS-B
Sun 11:12:38 AM 38.7850 -9.1340 203° Southwest 141 162 400  Level FlightAware ADS-B
Sun 11:15:00 AM 38.7813 -9.1359 202° Southwest  Level Estimated

Login

Don't have an account? Register now (free) for customized features, flight alerts, and more!